createdAt,value
2022-12-03T00:02:25.478Z,100598.16
2022-12-03T00:07:27.018Z,100593.09
2022-12-03T00:12:28.513Z,100593.97
2022-12-03T00:17:30.000Z,100590.59
2022-12-03T00:22:31.559Z,100583.06
2022-12-03T00:27:33.034Z,100588.09
2022-12-03T00:32:34.582Z,100586.41
2022-12-03T00:37:36.143Z,100586.41
2022-12-03T00:42:37.578Z,100581.38
2022-12-03T00:47:39.072Z,100593.97
2022-12-03T00:52:40.529Z,100588.09
2022-12-03T00:57:42.275Z,100590.59
2022-12-03T01:02:43.834Z,100583.91
2022-12-03T01:07:45.967Z,100594.78
2022-12-03T01:12:47.504Z,100581.38
2022-12-03T01:17:48.924Z,100580.50
2022-12-03T01:22:50.367Z,100588.06
2022-12-03T01:27:51.825Z,100587.22
2022-12-03T01:32:54.460Z,100594.78
2022-12-03T01:37:55.894Z,100596.47
2022-12-03T01:42:57.338Z,100596.47
2022-12-03T01:47:58.864Z,100599.84
2022-12-03T01:53:03.095Z,100603.19
2022-12-03T01:58:05.082Z,100606.56
2022-12-03T02:03:18.478Z,100607.38
2022-12-03T02:08:31.286Z,100598.13
2022-12-03T02:13:33.499Z,100596.47
2022-12-03T02:18:35.239Z,100602.34
2022-12-03T02:24:02.467Z,100598.16
2022-12-03T02:29:04.114Z,100589.75
2022-12-03T02:34:08.548Z,100591.41
2022-12-03T02:39:10.038Z,100595.66
2022-12-03T02:44:12.060Z,100593.13
2022-12-03T02:49:13.862Z,100593.13
2022-12-03T02:54:15.459Z,100577.16
2022-12-03T02:59:17.013Z,100580.53
2022-12-03T03:04:18.671Z,100580.53
2022-12-03T03:09:21.172Z,100586.41
2022-12-03T03:14:22.679Z,100591.47
2022-12-03T03:19:28.539Z,100586.41
2022-12-03T03:24:30.077Z,100585.59
2022-12-03T03:29:33.539Z,100582.22
2022-12-03T03:34:35.027Z,100585.59
2022-12-03T03:39:36.553Z,100564.59
2022-12-03T03:44:38.347Z,100578.84
2022-12-03T03:49:40.450Z,100570.47
2022-12-03T03:54:41.926Z,100562.91
2022-12-03T03:59:43.506Z,100565.44
2022-12-03T04:04:45.220Z,100565.44
2022-12-03T04:09:46.695Z,100572.97
2022-12-03T04:14:48.156Z,100568.75
2022-12-03T04:19:49.691Z,100571.28
2022-12-03T04:24:51.456Z,100567.91
2022-12-03T04:29:53.084Z,100563.72
2022-12-03T04:35:13.025Z,100568.75
2022-12-03T04:40:33.194Z,100576.28
2022-12-03T04:45:34.710Z,100575.41
2022-12-03T04:50:36.254Z,100573.72
2022-12-03T04:55:37.689Z,100572.03
2022-12-03T05:00:39.230Z,100572.88
2022-12-03T05:05:40.707Z,100574.59
2022-12-03T05:10:42.135Z,100557.81
2022-12-03T05:15:43.594Z,100554.47
2022-12-03T05:20:51.455Z,100556.16
2022-12-03T05:25:54.788Z,100546.09
2022-12-03T05:30:56.319Z,100539.41
2022-12-03T05:35:57.827Z,100528.47
2022-12-03T05:40:59.332Z,100528.47
2022-12-03T05:46:00.875Z,100541.88
2022-12-03T05:51:02.339Z,100551.91
2022-12-03T05:56:03.976Z,100543.50
2022-12-03T06:01:05.543Z,100537.59
2022-12-03T06:06:07.078Z,100542.59
2022-12-03T06:11:08.455Z,100540.94
2022-12-03T06:16:09.905Z,100537.56
2022-12-03T06:21:11.410Z,100537.53
2022-12-03T06:26:13.856Z,100533.34
2022-12-03T06:31:15.460Z,100547.59
2022-12-03T06:36:22.619Z,100544.25
2022-12-03T06:41:24.639Z,100552.66
2022-12-03T06:46:26.187Z,100558.50
2022-12-03T06:51:27.778Z,100556.88
2022-12-03T06:56:35.053Z,100558.53
2022-12-03T07:01:38.471Z,100561.06
2022-12-03T07:06:39.958Z,100558.53
2022-12-03T07:11:41.446Z,100563.53
2022-12-03T07:16:43.765Z,100571.94
2022-12-03T07:21:45.361Z,100565.25
2022-12-03T07:26:46.864Z,100562.75
2022-12-03T07:31:48.434Z,100563.63
2022-12-03T07:36:49.936Z,100563.66
2022-12-03T07:41:51.452Z,100553.59
2022-12-03T07:46:52.976Z,100562.03
2022-12-03T07:51:54.651Z,100570.44
2022-12-03T07:57:01.123Z,100574.63
2022-12-03T08:02:03.479Z,100581.38
2022-12-03T08:07:05.052Z,100578.00
2022-12-03T08:12:18.267Z,100562.03
2022-12-03T08:17:21.656Z,100558.72
2022-12-03T08:22:23.253Z,100556.19
2022-12-03T08:27:24.709Z,100552.00
2022-12-03T08:32:26.345Z,100553.69
2022-12-03T08:37:29.806Z,100544.47
2022-12-03T08:42:42.078Z,100537.72
2022-12-03T08:47:43.596Z,100534.38
2022-12-03T08:52:45.060Z,100549.47
2022-12-03T08:57:46.628Z,100547.78
2022-12-03T09:02:51.323Z,100552.81
2022-12-03T09:07:52.884Z,100546.94
2022-12-03T09:12:54.354Z,100546.06
2022-12-03T09:17:55.821Z,100549.41
2022-12-03T09:22:57.335Z,100545.19
2022-12-03T09:27:58.849Z,100543.47
2022-12-03T09:33:00.367Z,100542.59
2022-12-03T09:38:02.076Z,100536.66
2022-12-03T09:43:03.607Z,100543.38
2022-12-03T09:48:05.375Z,100548.38
2022-12-03T09:53:06.973Z,100542.44
2022-12-03T09:58:18.028Z,100538.22
2022-12-03T10:03:28.272Z,100522.19
2022-12-03T10:08:32.775Z,100505.44
2022-12-03T10:13:37.258Z,100510.47
2022-12-03T10:18:42.913Z,100502.00
2022-12-03T10:23:48.455Z,100501.09
2022-12-03T10:28:53.690Z,100492.69
2022-12-03T10:33:58.156Z,100487.66
2022-12-03T10:39:12.319Z,100491.84
2022-12-03T10:44:30.485Z,100490.16
2022-12-03T10:49:32.362Z,100487.56
2022-12-03T10:54:35.535Z,100468.19
2022-12-03T10:59:38.705Z,100460.63
2022-12-03T11:04:40.635Z,100441.28
2022-12-03T11:09:48.145Z,100433.63
2022-12-03T11:14:56.659Z,100436.16
2022-12-03T11:19:59.247Z,100435.38
2022-12-03T11:25:25.463Z,100429.41
2022-12-03T11:30:48.903Z,100424.38
2022-12-03T11:35:59.577Z,100417.66
2022-12-03T11:41:13.258Z,100409.97
2022-12-03T11:46:14.823Z,100409.00
2022-12-03T11:51:18.205Z,100401.31
2022-12-03T11:56:23.259Z,100397.88
2022-12-03T12:01:38.778Z,100395.34
2022-12-03T12:06:47.489Z,100386.16
2022-12-03T12:11:53.189Z,100367.75
2022-12-03T12:16:55.505Z,100365.13
2022-12-03T12:22:19.846Z,100372.72
2022-12-03T12:27:29.932Z,100368.47
2022-12-03T12:32:44.833Z,100365.13
2022-12-03T12:38:07.754Z,100354.19
2022-12-03T12:43:16.472Z,100347.47
2022-12-03T12:48:34.104Z,100351.78
2022-12-03T12:53:38.231Z,100350.91
2022-12-03T12:58:40.305Z,100345.84
2022-12-03T13:03:41.747Z,100350.97
2022-12-03T13:08:45.646Z,100337.47
2022-12-03T13:13:47.126Z,100336.81
2022-12-03T13:18:53.449Z,100340.97
2022-12-03T13:23:57.217Z,100327.78
2022-12-03T13:28:59.712Z,100334.53
2022-12-03T13:34:01.989Z,100326.03
2022-12-03T13:39:26.994Z,100319.38
2022-12-03T13:44:30.853Z,100322.81
2022-12-03T13:49:32.324Z,100325.38
2022-12-03T13:54:37.332Z,100313.66
2022-12-03T13:59:38.957Z,100324.50
2022-12-03T14:04:40.465Z,100324.59
2022-12-03T14:09:42.207Z,100338.94
2022-12-03T14:14:43.731Z,100336.47
2022-12-03T14:19:45.257Z,100345.75
2022-12-03T14:24:46.762Z,100343.28
2022-12-03T14:29:48.536Z,100359.25
2022-12-03T14:34:50.176Z,100350.09
2022-12-03T14:39:51.811Z,100353.50
2022-12-03T14:44:53.453Z,100366.19
2022-12-03T14:49:55.056Z,100360.31
2022-12-03T14:54:56.954Z,100357.81
2022-12-03T14:59:58.436Z,100351.97
2022-12-03T15:04:59.927Z,100357.06
2022-12-03T15:10:01.458Z,100351.19
2022-12-03T15:15:03.140Z,100356.28
2022-12-03T15:20:05.245Z,100338.59
2022-12-03T15:25:07.789Z,100351.19
2022-12-03T15:30:09.750Z,100356.25
2022-12-03T15:35:13.589Z,100354.59
2022-12-03T15:40:15.115Z,100347.06
2022-12-03T15:45:16.652Z,100347.06
2022-12-03T15:50:18.231Z,100347.09
2022-12-03T15:55:19.922Z,100343.75
2022-12-03T16:00:21.773Z,100354.66
2022-12-03T16:05:23.377Z,100354.63
2022-12-03T16:10:24.840Z,100355.50
2022-12-03T16:15:29.749Z,100351.31
2022-12-03T16:20:31.222Z,100345.41
2022-12-03T16:25:32.629Z,100358.84
2022-12-03T16:30:34.194Z,100344.59
2022-12-03T16:35:35.723Z,100342.06
2022-12-03T16:40:37.278Z,100328.63
2022-12-03T16:46:01.844Z,100327.78
2022-12-03T16:51:03.486Z,100315.19
2022-12-03T16:56:05.181Z,100317.72
2022-12-03T17:01:06.864Z,100321.91
2022-12-03T17:06:08.430Z,100312.66
2022-12-03T17:11:09.955Z,100315.19
2022-12-03T17:16:11.572Z,100303.50
2022-12-03T17:21:13.207Z,100315.28
2022-12-03T17:26:15.226Z,100325.31
2022-12-03T17:31:16.815Z,100316.09
2022-12-03T17:36:18.326Z,100327.88
2022-12-03T17:41:19.808Z,100314.44
2022-12-03T17:46:21.382Z,100313.56
2022-12-03T17:51:24.432Z,100312.78
2022-12-03T17:56:25.856Z,100311.09
2022-12-03T18:01:27.348Z,100310.31
2022-12-03T18:06:28.882Z,100311.97
2022-12-03T18:11:30.514Z,100311.13
2022-12-03T18:16:32.020Z,100309.47
2022-12-03T18:21:34.801Z,100309.50
2022-12-03T18:26:36.389Z,100313.69
2022-12-03T18:31:37.924Z,100312.00
2022-12-03T18:36:39.429Z,100302.78
2022-12-03T18:41:40.911Z,100305.31
2022-12-03T18:46:53.675Z,100299.44
2022-12-03T18:51:59.314Z,100288.53
2022-12-03T18:57:01.141Z,100291.88
2022-12-03T19:02:02.870Z,100294.44
2022-12-03T19:07:04.822Z,100289.41
2022-12-03T19:12:14.283Z,100291.91
2022-12-03T19:17:16.208Z,100294.47
2022-12-03T19:22:17.702Z,100290.31
2022-12-03T19:27:19.418Z,100282.75
2022-12-03T19:32:20.865Z,100289.47
2022-12-03T19:37:22.318Z,100286.09
2022-12-03T19:42:23.730Z,100294.50
2022-12-03T19:47:25.502Z,100285.28
2022-12-03T19:52:26.958Z,100288.66
2022-12-03T19:57:28.438Z,100286.97
2022-12-03T20:02:30.080Z,100287.81
2022-12-03T20:07:31.719Z,100297.06
2022-12-03T20:12:33.299Z,100292.00
2022-12-03T20:17:34.891Z,100286.09
2022-12-03T20:22:36.358Z,100292.00
2022-12-03T20:27:38.242Z,100300.38
2022-12-03T20:32:45.017Z,100293.66
2022-12-03T20:37:47.012Z,100300.38
2022-12-03T20:42:48.468Z,100295.34
2022-12-03T20:47:49.944Z,100286.94
2022-12-03T20:53:09.760Z,100281.91
2022-12-03T20:58:12.886Z,100288.59
2022-12-03T21:03:14.428Z,100275.22
2022-12-03T21:08:16.023Z,100256.75
2022-12-03T21:13:18.252Z,100252.56
2022-12-03T21:18:19.751Z,100250.88
2022-12-03T21:23:21.184Z,100255.06
2022-12-03T21:28:22.625Z,100262.66
2022-12-03T21:33:24.098Z,100246.69
2022-12-03T21:38:26.521Z,100247.53
2022-12-03T21:43:29.328Z,100246.72
2022-12-03T21:48:30.831Z,100244.22
2022-12-03T21:53:35.195Z,100247.56
2022-12-03T21:58:39.582Z,100245.88
2022-12-03T22:03:42.509Z,100251.78
2022-12-03T22:08:44.192Z,100249.25
2022-12-03T22:13:45.989Z,100246.75
2022-12-03T22:18:47.901Z,100261.81
2022-12-03T22:23:49.462Z,100262.66
2022-12-03T22:28:51.068Z,100248.41
2022-12-03T22:33:52.513Z,100245.84
2022-12-03T22:38:53.978Z,100243.38
2022-12-03T22:43:55.403Z,100223.25
2022-12-03T22:48:59.451Z,100228.28
2022-12-03T22:54:05.688Z,100228.31
2022-12-03T22:59:07.286Z,100245.06
2022-12-03T23:04:10.665Z,100209.88
2022-12-03T23:09:12.263Z,100212.38
2022-12-03T23:14:14.161Z,100208.19
2022-12-03T23:19:15.660Z,100222.44
2022-12-03T23:24:17.062Z,100223.31
2022-12-03T23:29:18.503Z,100221.63
2022-12-03T23:34:20.027Z,100228.34
2022-12-03T23:39:21.544Z,100238.38
2022-12-03T23:44:22.985Z,100220.75
2022-12-03T23:49:24.454Z,100225.81
2022-12-03T23:54:26.188Z,100214.91
2022-12-03T23:59:27.730Z,100203.16
